createdAt,value
2019-02-23T00:00:21.897Z,103656.00
2019-02-23T00:02:50.695Z,103648.26
2019-02-23T00:05:17.724Z,103633.73
2019-02-23T00:07:44.401Z,103615.41
2019-02-23T00:10:12.433Z,103613.02
2019-02-23T00:12:39.134Z,103603.03
2019-02-23T00:15:06.411Z,103594.05
2019-02-23T00:17:33.741Z,103594.39
2019-02-23T00:20:01.302Z,103598.95
2019-02-23T00:22:28.329Z,103590.63
2019-02-23T00:24:55.415Z,103585.13
2019-02-23T00:27:22.132Z,103580.73
2019-02-23T00:29:49.543Z,103582.37
2019-02-23T00:32:18.626Z,103573.99
2019-02-23T00:34:46.203Z,103573.89
2019-02-23T00:37:13.412Z,103588.36
2019-02-23T00:39:40.964Z,103583.62
2019-02-23T00:42:11.451Z,103575.30
2019-02-23T00:44:38.110Z,103570.48
2019-02-23T00:47:05.487Z,103575.23
2019-02-23T00:49:36.406Z,103580.99
2019-02-23T00:52:01.502Z,103573.13
2019-02-23T00:54:28.392Z,103577.28
2019-02-23T00:56:55.749Z,103576.50
2019-02-23T00:59:23.412Z,103576.18
2019-02-23T01:01:50.112Z,103568.86
2019-02-23T01:04:17.694Z,103572.25
2019-02-23T01:06:44.394Z,103562.77
2019-02-23T01:09:11.724Z,103562.95
2019-02-23T01:11:38.402Z,103555.58
2019-02-23T01:14:05.089Z,103545.56
2019-02-23T01:16:31.780Z,103542.88
2019-02-23T01:18:59.351Z,103541.87
2019-02-23T01:21:26.013Z,103540.99
2019-02-23T01:23:52.693Z,103541.52
2019-02-23T01:26:19.386Z,103536.34
2019-02-23T01:28:46.747Z,103532.63
2019-02-23T01:31:13.518Z,103541.66
2019-02-23T01:33:40.225Z,103550.21
2019-02-23T01:36:08.009Z,103547.97
2019-02-23T01:38:35.139Z,103547.80
2019-02-23T01:41:01.842Z,103552.50
2019-02-23T01:43:29.017Z,103558.51
2019-02-23T01:45:56.264Z,103555.80
2019-02-23T01:48:23.183Z,103560.98
2019-02-23T01:50:49.887Z,103566.03
2019-02-23T01:53:16.679Z,103572.45
2019-02-23T01:55:43.955Z,103572.56
2019-02-23T01:58:10.981Z,103572.23
2019-02-23T02:00:39.102Z,103573.67
2019-02-23T02:03:06.122Z,103582.13
2019-02-23T02:05:33.262Z,103582.78
2019-02-23T02:08:00.526Z,103584.94
2019-02-23T02:10:28.068Z,103584.94
2019-02-23T02:12:54.927Z,103593.58
2019-02-23T02:15:21.878Z,103601.59
2019-02-23T02:17:49.002Z,103598.88
2019-02-23T02:20:16.876Z,103608.09
2019-02-23T02:22:43.845Z,103613.73
2019-02-23T02:25:10.522Z,103617.56
2019-02-23T02:27:37.556Z,103619.67
2019-02-23T02:30:06.227Z,103614.97
2019-02-23T02:32:33.450Z,103620.14
2019-02-23T02:35:00.391Z,103616.89
2019-02-23T02:37:28.075Z,103622.14
2019-02-23T02:39:55.314Z,103623.38
2019-02-23T02:42:22.112Z,103619.46
2019-02-23T02:44:49.992Z,103614.06
2019-02-23T02:47:18.321Z,103613.28
2019-02-23T02:49:45.557Z,103610.34
2019-02-23T02:52:12.789Z,103601.81
2019-02-23T02:54:40.061Z,103592.15
2019-02-23T02:57:07.680Z,103592.59
2019-02-23T02:59:35.070Z,103593.14
2019-02-23T03:02:02.526Z,103593.73
2019-02-23T03:04:31.938Z,103588.66
2019-02-23T03:07:23.149Z,103581.22
2019-02-23T03:09:51.998Z,103575.70
2019-02-23T03:12:19.101Z,103572.78
2019-02-23T03:14:45.778Z,103566.73
2019-02-23T03:17:13.102Z,103566.59
2019-02-23T03:19:40.730Z,103567.59
2019-02-23T03:22:07.871Z,103572.10
2019-02-23T03:24:34.556Z,103573.31
2019-02-23T03:27:01.755Z,103568.71
2019-02-23T03:29:28.797Z,103570.52
2019-02-23T03:31:55.765Z,103573.91
2019-02-23T03:34:23.330Z,103572.45
2019-02-23T03:36:50.761Z,103569.20
2019-02-23T03:39:18.538Z,103577.62
2019-02-23T03:41:45.480Z,103579.17
2019-02-23T03:44:12.295Z,103580.62
2019-02-23T03:46:39.775Z,103577.25
2019-02-23T03:49:07.114Z,103589.39
2019-02-23T03:51:34.306Z,103580.64
2019-02-23T03:54:01.090Z,103584.47
2019-02-23T03:56:28.365Z,103580.64
2019-02-23T03:58:55.939Z,103580.87
2019-02-23T04:01:23.122Z,103580.52
2019-02-23T04:03:50.880Z,103591.29
2019-02-23T04:06:19.438Z,103586.11
2019-02-23T04:08:47.007Z,103573.92
2019-02-23T04:11:14.257Z,103573.98
2019-02-23T04:13:41.540Z,103570.49
2019-02-23T04:16:09.375Z,103564.01
2019-02-23T04:18:37.503Z,103557.50
2019-02-23T04:21:04.320Z,103562.83
2019-02-23T04:23:31.407Z,103566.23
2019-02-23T04:25:58.477Z,103569.63
2019-02-23T04:28:25.640Z,103562.53
2019-02-23T04:30:52.290Z,103564.23
2019-02-23T04:33:19.419Z,103573.64
2019-02-23T04:35:47.170Z,103574.66
2019-02-23T04:38:13.844Z,103567.25
2019-02-23T04:40:40.831Z,103560.45
2019-02-23T04:43:08.166Z,103562.70
2019-02-23T04:45:35.263Z,103567.12
2019-02-23T04:48:03.045Z,103581.56
2019-02-23T04:50:30.065Z,103580.42
2019-02-23T04:52:57.634Z,103593.74
2019-02-23T04:55:24.314Z,103602.42
2019-02-23T04:57:52.110Z,103600.08
2019-02-23T05:00:19.460Z,103604.22
2019-02-23T05:02:47.191Z,103600.34
2019-02-23T05:05:13.946Z,103601.06
2019-02-23T05:07:41.657Z,103613.88
2019-02-23T05:10:09.154Z,103620.13
2019-02-23T05:12:36.137Z,103632.86
2019-02-23T05:15:04.165Z,103625.70
2019-02-23T05:17:31.563Z,103626.69
2019-02-23T05:19:58.236Z,103627.23
2019-02-23T05:22:25.690Z,103621.48
2019-02-23T05:24:53.559Z,103616.72
2019-02-23T05:27:39.044Z,103610.63
2019-02-23T05:31:29.512Z,103598.15
2019-02-23T05:34:08.598Z,103596.19
2019-02-23T05:36:48.601Z,103596.66
2019-02-23T05:39:17.751Z,103598.08
2019-02-23T05:41:44.956Z,103584.95
2019-02-23T05:44:11.662Z,103586.33
2019-02-23T05:46:39.189Z,103596.92
2019-02-23T05:49:06.917Z,103592.91
2019-02-23T05:51:38.811Z,103589.44
2019-02-23T05:54:03.560Z,103594.25
2019-02-23T05:56:30.507Z,103594.48
2019-02-23T05:58:58.494Z,103606.00
2019-02-23T06:01:27.067Z,103611.96
2019-02-23T06:03:54.548Z,103611.88
2019-02-23T06:06:21.530Z,103606.05
2019-02-23T06:08:48.458Z,103605.59
2019-02-23T06:11:15.428Z,103601.73
2019-02-23T06:13:42.383Z,103600.85
2019-02-23T06:16:10.137Z,103594.72
2019-02-23T06:18:37.920Z,103586.55
2019-02-23T06:21:04.874Z,103571.17
2019-02-23T06:23:32.735Z,103574.27
2019-02-23T06:25:59.676Z,103582.55
2019-02-23T06:28:26.346Z,103582.27
2019-02-23T06:30:53.366Z,103584.53
2019-02-23T06:33:21.038Z,103585.42
2019-02-23T06:35:48.090Z,103587.60
2019-02-23T06:38:15.002Z,103591.08
2019-02-23T06:40:42.166Z,103594.69
2019-02-23T06:43:10.045Z,103592.20
2019-02-23T06:45:36.961Z,103592.75
2019-02-23T06:48:03.746Z,103596.11
2019-02-23T06:50:30.863Z,103616.59
2019-02-23T06:52:57.518Z,103619.26
2019-02-23T06:55:25.480Z,103621.05
2019-02-23T06:57:53.452Z,103623.17
2019-02-23T07:00:20.407Z,103623.25
2019-02-23T07:02:47.441Z,103619.47
2019-02-23T07:05:15.535Z,103611.85
2019-02-23T07:07:42.830Z,103614.48
2019-02-23T07:10:10.693Z,103605.36
2019-02-23T07:12:38.089Z,103608.41
2019-02-23T07:15:05.810Z,103597.99
2019-02-23T07:17:32.601Z,103602.97
2019-02-23T07:20:00.789Z,103588.06
2019-02-23T07:22:28.235Z,103589.13
2019-02-23T07:24:55.683Z,103593.08
2019-02-23T07:27:22.358Z,103601.37
2019-02-23T07:29:49.440Z,103589.42
2019-02-23T07:32:16.942Z,103590.92
2019-02-23T07:34:43.606Z,103590.58
2019-02-23T07:37:10.609Z,103590.80
2019-02-23T07:39:38.398Z,103580.55
2019-02-23T07:42:05.322Z,103580.92
2019-02-23T07:44:32.236Z,103576.67
2019-02-23T07:46:59.190Z,103575.34
2019-02-23T07:49:26.108Z,103573.31
2019-02-23T07:51:53.503Z,103574.78
2019-02-23T07:54:20.227Z,103580.96
2019-02-23T07:56:47.282Z,103573.67
2019-02-23T07:59:14.223Z,103571.13
2019-02-23T08:01:41.155Z,103563.58
2019-02-23T08:04:08.834Z,103562.69
2019-02-23T08:06:37.112Z,103567.72
2019-02-23T08:09:04.843Z,103566.70
2019-02-23T08:11:33.671Z,103574.09
2019-02-23T08:14:00.935Z,103568.90
2019-02-23T08:16:30.047Z,103556.66
2019-02-23T08:18:59.124Z,103548.00
2019-02-23T08:21:25.554Z,103560.27
2019-02-23T08:23:53.566Z,103555.08
2019-02-23T08:26:21.073Z,103555.48
2019-02-23T08:28:48.325Z,103551.57
2019-02-23T08:31:15.176Z,103549.18
2019-02-23T08:33:42.415Z,103544.84
2019-02-23T08:36:10.294Z,103545.37
2019-02-23T08:38:37.133Z,103540.47
2019-02-23T08:41:06.995Z,103544.19
2019-02-23T08:43:35.013Z,103531.15
2019-02-23T08:46:02.253Z,103524.50
2019-02-23T08:48:29.710Z,103524.77
2019-02-23T08:50:56.514Z,103519.38
2019-02-23T08:53:26.608Z,103527.60
2019-02-23T08:55:55.165Z,103518.30
2019-02-23T08:58:22.516Z,103517.33
2019-02-23T09:00:49.678Z,103518.33
2019-02-23T09:03:18.135Z,103523.11
2019-02-23T09:05:45.845Z,103526.25
2019-02-23T09:08:12.784Z,103533.78
2019-02-23T09:10:39.465Z,103537.16
2019-02-23T09:13:07.258Z,103544.94
2019-02-23T09:15:35.149Z,103555.03
2019-02-23T09:18:02.438Z,103557.36
2019-02-23T09:20:29.792Z,103563.94
2019-02-23T09:23:00.120Z,103560.88
2019-02-23T09:25:26.508Z,103552.46
2019-02-23T09:27:53.958Z,103555.78
2019-02-23T09:30:20.606Z,103562.81
2019-02-23T09:32:47.282Z,103561.57
2019-02-23T09:35:14.595Z,103560.92
2019-02-23T09:37:42.223Z,103553.20
2019-02-23T09:40:09.021Z,103552.31
2019-02-23T09:42:36.515Z,103551.53
2019-02-23T09:45:03.881Z,103539.03
2019-02-23T09:47:31.341Z,103537.02
2019-02-23T09:49:58.076Z,103522.68
2019-02-23T09:52:25.224Z,103521.59
2019-02-23T09:54:52.189Z,103521.13
2019-02-23T09:57:19.430Z,103525.40
2019-02-23T09:59:46.364Z,103527.08
2019-02-23T10:02:14.687Z,103529.70
2019-02-23T10:04:41.953Z,103543.69
2019-02-23T10:07:08.649Z,103552.79
2019-02-23T10:09:35.883Z,103553.64
2019-02-23T10:12:04.468Z,103554.23
2019-02-23T10:14:31.162Z,103547.95
2019-02-23T10:16:58.595Z,103551.20
2019-02-23T10:19:26.734Z,103544.45
2019-02-23T10:21:54.409Z,103541.69
2019-02-23T10:24:21.791Z,103535.03
2019-02-23T10:26:48.511Z,103530.23
2019-02-23T10:29:15.741Z,103532.72
2019-02-23T10:31:42.802Z,103531.20
2019-02-23T10:34:10.450Z,103527.45
2019-02-23T10:36:38.017Z,103527.92
2019-02-23T10:39:06.287Z,103519.62
2019-02-23T10:41:35.160Z,103504.77
2019-02-23T10:44:31.509Z,103502.13
2019-02-23T10:46:58.186Z,103501.19
2019-02-23T10:49:25.182Z,103493.61
2019-02-23T10:51:52.562Z,103491.85
2019-02-23T10:54:19.697Z,103494.55
2019-02-23T10:56:46.388Z,103491.06
2019-02-23T10:59:13.075Z,103496.03
2019-02-23T11:01:40.209Z,103495.33
2019-02-23T11:04:07.438Z,103504.50
2019-02-23T11:06:34.644Z,103505.98
2019-02-23T11:09:02.195Z,103492.95
2019-02-23T11:11:31.269Z,103486.66
2019-02-23T11:13:58.747Z,103490.32
2019-02-23T11:16:25.558Z,103496.20
2019-02-23T11:18:52.832Z,103503.91
2019-02-23T11:21:20.395Z,103499.69
2019-02-23T11:23:47.073Z,103497.22
2019-02-23T11:26:15.005Z,103501.91
2019-02-23T11:28:42.846Z,103508.91
2019-02-23T11:31:10.221Z,103508.17
2019-02-23T11:33:38.070Z,103514.70
2019-02-23T11:36:05.559Z,103521.03
2019-02-23T11:38:32.226Z,103508.91
2019-02-23T11:40:59.309Z,103506.19
2019-02-23T11:43:27.399Z,103499.18
2019-02-23T11:45:54.540Z,103491.65
2019-02-23T11:48:21.484Z,103491.85
2019-02-23T11:50:48.989Z,103493.36
2019-02-23T11:53:15.932Z,103486.39
2019-02-23T11:55:43.053Z,103487.72
2019-02-23T11:58:09.972Z,103484.93
2019-02-23T12:00:38.493Z,103473.05
2019-02-23T12:03:05.621Z,103468.51
2019-02-23T12:05:32.307Z,103460.13
2019-02-23T12:07:59.855Z,103457.07
2019-02-23T12:10:27.377Z,103454.64
2019-02-23T12:12:55.375Z,103445.08
2019-02-23T12:15:22.515Z,103450.19
2019-02-23T12:17:49.460Z,103448.58
2019-02-23T12:20:17.938Z,103446.16
2019-02-23T12:22:45.416Z,103440.27
2019-02-23T12:25:15.909Z,103447.43
2019-02-23T12:27:42.432Z,103441.17
2019-02-23T12:30:09.338Z,103439.28
2019-02-23T12:32:36.449Z,103438.81
2019-02-23T12:35:05.663Z,103441.20
2019-02-23T12:37:33.181Z,103435.33
2019-02-23T12:40:00.345Z,103430.73
2019-02-23T12:42:27.872Z,103429.56
2019-02-23T12:44:56.583Z,103354.84
2019-02-23T12:47:23.733Z,103423.87
2019-02-23T12:49:50.764Z,103417.02
2019-02-23T12:52:18.131Z,103424.30
2019-02-23T12:54:45.588Z,103414.90
2019-02-23T12:57:12.362Z,103407.77
2019-02-23T12:59:39.675Z,103410.25
2019-02-23T13:02:07.468Z,103408.75
2019-02-23T13:04:35.026Z,103404.38
2019-02-23T13:07:01.962Z,103404.00
2019-02-23T13:09:31.693Z,103403.29
2019-02-23T13:12:14.447Z,103395.27
2019-02-23T13:15:19.285Z,103393.45
2019-02-23T13:18:19.030Z,103392.92
2019-02-23T13:21:31.062Z,103394.53
2019-02-23T13:24:49.169Z,103387.56
2019-02-23T13:28:00.595Z,103387.56
2019-02-23T13:31:08.461Z,103389.53
2019-02-23T13:34:08.373Z,103385.62
2019-02-23T13:37:10.926Z,103380.05
2019-02-23T13:40:10.230Z,103375.81
2019-02-23T13:43:17.963Z,103378.80
2019-02-23T13:46:32.839Z,103379.45
2019-02-23T13:49:24.777Z,103377.84
2019-02-23T13:52:42.273Z,103368.92
2019-02-23T13:55:36.573Z,103367.03
2019-02-23T13:58:47.722Z,103370.38
2019-02-23T14:01:45.522Z,103368.78
2019-02-23T14:04:40.751Z,103372.77
2019-02-23T14:08:06.701Z,103371.98
2019-02-23T14:11:14.779Z,103360.36
2019-02-23T14:14:31.885Z,103361.80
2019-02-23T14:17:37.234Z,103357.70
2019-02-23T14:20:58.756Z,103351.48
2019-02-23T14:24:01.434Z,103351.48
2019-02-23T14:27:14.919Z,103359.17
2019-02-23T14:30:13.345Z,103359.72
2019-02-23T14:33:16.977Z,103359.72
2019-02-23T14:36:34.365Z,103361.15
2019-02-23T14:39:49.364Z,103356.35
2019-02-23T14:42:50.614Z,103351.74
2019-02-23T14:45:40.610Z,103361.16
2019-02-23T14:48:40.247Z,103359.90
2019-02-23T14:52:08.108Z,103363.55
2019-02-23T14:54:47.147Z,103363.50
2019-02-23T14:58:12.036Z,103364.30
2019-02-23T15:01:30.189Z,103371.13
2019-02-23T15:04:34.386Z,103367.48
2019-02-23T15:07:28.594Z,103372.39
2019-02-23T15:10:22.861Z,103365.63
2019-02-23T15:13:31.294Z,103359.73
2019-02-23T15:16:41.436Z,103359.17
2019-02-23T15:19:36.221Z,103361.09
2019-02-23T15:22:42.450Z,103353.81
2019-02-23T15:25:53.457Z,103337.23
2019-02-23T15:28:45.248Z,103330.26
2019-02-23T15:32:55.403Z,103334.98
2019-02-23T15:36:05.524Z,103334.98
2019-02-23T15:39:19.369Z,103337.45
2019-02-23T15:42:33.693Z,103337.81
2019-02-23T15:45:12.440Z,103337.88
2019-02-23T15:48:01.217Z,103327.39
2019-02-23T15:50:27.902Z,103326.62
2019-02-23T15:52:54.865Z,103325.70
2019-02-23T15:55:26.099Z,103320.50
2019-02-23T15:57:50.844Z,103328.03
2019-02-23T16:00:18.258Z,103328.03
2019-02-23T16:02:45.107Z,103334.05
2019-02-23T16:05:12.255Z,103332.05
2019-02-23T16:07:41.768Z,103324.08
2019-02-23T16:10:09.422Z,103322.78
2019-02-23T16:12:36.557Z,103323.33
2019-02-23T16:15:05.068Z,103328.89
2019-02-23T16:18:03.679Z,103321.98
2019-02-23T16:20:31.774Z,103317.33
2019-02-23T16:23:00.134Z,103313.55
2019-02-23T16:25:38.105Z,103311.39
2019-02-23T16:27:57.259Z,103319.61
2019-02-23T16:30:24.925Z,103314.81
2019-02-23T16:32:52.101Z,103310.95
2019-02-23T16:35:18.762Z,103312.73
2019-02-23T16:37:46.167Z,103311.31
2019-02-23T16:40:14.247Z,103310.27
2019-02-23T16:42:41.403Z,103307.41
2019-02-23T16:45:08.662Z,103306.33
2019-02-23T16:47:35.993Z,103309.70
2019-02-23T16:50:03.358Z,103309.70
2019-02-23T16:52:31.311Z,103310.63
2019-02-23T16:54:58.048Z,103310.59
2019-02-23T16:57:24.744Z,103315.59
2019-02-23T17:00:02.610Z,103320.43
2019-02-23T17:02:31.170Z,103314.91
2019-02-23T17:04:57.858Z,103311.88
2019-02-23T17:07:24.521Z,103317.09
2019-02-23T17:09:51.461Z,103315.43
2019-02-23T17:12:18.865Z,103317.80
2019-02-23T17:14:46.413Z,103321.47
2019-02-23T17:17:13.113Z,103319.57
2019-02-23T17:19:40.757Z,103318.91
2019-02-23T17:22:07.691Z,103322.70
2019-02-23T17:24:34.848Z,103318.63
2019-02-23T17:27:02.032Z,103320.66
2019-02-23T17:29:29.382Z,103320.34
2019-02-23T17:31:56.287Z,103328.27
2019-02-23T17:34:23.415Z,103328.98
2019-02-23T17:36:50.086Z,103332.55
2019-02-23T17:39:17.389Z,103332.52
2019-02-23T17:41:44.470Z,103326.67
2019-02-23T17:44:11.247Z,103326.67
2019-02-23T17:46:38.334Z,103334.11
2019-02-23T17:49:05.815Z,103331.72
2019-02-23T17:51:32.488Z,103334.63
2019-02-23T17:54:00.793Z,103336.06
2019-02-23T17:56:27.495Z,103332.84
2019-02-23T17:58:56.118Z,103337.50
2019-02-23T18:01:23.016Z,103333.72
2019-02-23T18:03:51.120Z,103338.12
2019-02-23T18:06:18.020Z,103338.80
2019-02-23T18:08:46.543Z,103332.23
2019-02-23T18:11:13.225Z,103340.07
2019-02-23T18:13:40.041Z,103338.49
2019-02-23T18:16:07.563Z,103339.94
2019-02-23T18:18:35.275Z,103336.03
2019-02-23T18:21:02.525Z,103337.37
2019-02-23T18:23:29.627Z,103340.13
2019-02-23T18:25:57.332Z,103341.13
2019-02-23T18:28:24.580Z,103337.07
2019-02-23T18:30:52.045Z,103338.81
2019-02-23T18:33:18.926Z,103342.02
2019-02-23T18:35:46.674Z,103342.46
2019-02-23T18:38:14.929Z,103338.53
2019-02-23T18:40:42.560Z,103338.37
2019-02-23T18:43:09.632Z,103338.41
2019-02-23T18:45:37.182Z,103338.65
2019-02-23T18:48:04.444Z,103340.91
2019-02-23T18:50:31.878Z,103340.38
2019-02-23T18:52:58.874Z,103341.39
2019-02-23T18:55:25.893Z,103333.59
2019-02-23T18:57:53.594Z,103335.95
2019-02-23T19:00:24.586Z,103335.98
2019-02-23T19:02:52.782Z,103333.38
2019-02-23T19:05:19.486Z,103342.13
2019-02-23T19:07:46.761Z,103336.05
2019-02-23T19:10:13.701Z,103335.35
2019-02-23T19:12:41.027Z,103331.55
2019-02-23T19:15:15.675Z,103326.25
2019-02-23T19:17:43.582Z,103323.43
2019-02-23T19:20:14.386Z,103322.72
2019-02-23T19:22:58.290Z,103327.69
2019-02-23T19:25:25.355Z,103341.08
2019-02-23T19:27:53.287Z,103339.63
2019-02-23T19:30:20.536Z,103333.91
2019-02-23T19:32:47.720Z,103335.55
2019-02-23T19:35:15.101Z,103325.75
2019-02-23T19:37:42.549Z,103329.27
2019-02-23T19:40:09.875Z,103335.18
2019-02-23T19:42:37.517Z,103335.96
2019-02-23T19:45:05.256Z,103327.67
2019-02-23T19:47:34.001Z,103325.22
2019-02-23T19:50:17.995Z,103324.30
2019-02-23T19:52:45.074Z,103320.52
2019-02-23T19:55:19.873Z,103319.09
2019-02-23T19:57:48.327Z,103322.12
2019-02-23T20:00:15.126Z,103303.87
2019-02-23T20:02:43.553Z,103301.73
2019-02-23T20:05:10.678Z,103297.79
2019-02-23T20:07:38.198Z,103312.72
2019-02-23T20:10:05.787Z,103316.50
2019-02-23T20:12:34.237Z,103318.85
2019-02-23T20:15:01.190Z,103310.63
2019-02-23T20:17:29.656Z,103316.36
2019-02-23T20:19:56.866Z,103310.91
2019-02-23T20:22:25.337Z,103316.81
2019-02-23T20:24:52.821Z,103315.84
2019-02-23T20:27:19.752Z,103313.36
2019-02-23T20:29:46.763Z,103307.17
2019-02-23T20:32:14.064Z,103314.50
2019-02-23T20:34:41.711Z,103312.38
2019-02-23T20:37:08.818Z,103300.98
2019-02-23T20:39:35.746Z,103307.50
2019-02-23T20:42:03.298Z,103308.78
2019-02-23T20:44:30.926Z,103305.25
2019-02-23T20:47:00.068Z,103305.33
2019-02-23T20:49:28.359Z,103293.12
2019-02-23T20:51:55.441Z,103292.79
2019-02-23T20:54:22.697Z,103293.23
2019-02-23T20:56:50.551Z,103297.28
2019-02-23T20:59:17.624Z,103292.31
2019-02-23T21:01:44.733Z,103301.45
2019-02-23T21:04:11.897Z,103303.53
2019-02-23T21:06:39.771Z,103295.59
2019-02-23T21:09:07.019Z,103291.33
2019-02-23T21:11:36.010Z,103288.71
2019-02-23T21:14:03.693Z,103283.64
2019-02-23T21:16:30.385Z,103287.07
2019-02-23T21:18:59.654Z,103286.00
2019-02-23T21:21:27.173Z,103291.73
2019-02-23T21:23:54.103Z,103284.63
2019-02-23T21:26:22.914Z,103277.26
2019-02-23T21:28:49.904Z,103280.64
2019-02-23T21:31:16.908Z,103277.16
2019-02-23T21:33:44.562Z,103272.50
2019-02-23T21:36:11.650Z,103268.38
2019-02-23T21:38:38.950Z,103272.02
2019-02-23T21:41:06.007Z,103266.20
2019-02-23T21:43:33.667Z,103267.61
2019-02-23T21:46:00.909Z,103261.27
2019-02-23T21:48:28.382Z,103263.94
2019-02-23T21:50:56.673Z,103257.18
2019-02-23T21:53:24.004Z,103256.03
2019-02-23T21:55:51.105Z,103263.19
2019-02-23T21:58:18.436Z,103264.42
2019-02-23T22:00:45.218Z,103262.91
2019-02-23T22:03:12.110Z,103255.67
2019-02-23T22:05:39.699Z,103249.95
2019-02-23T22:08:06.584Z,103250.52
2019-02-23T22:10:33.263Z,103250.22
2019-02-23T22:13:01.095Z,103239.78
2019-02-23T22:15:28.332Z,103237.16
2019-02-23T22:17:56.204Z,103234.02
2019-02-23T22:20:25.368Z,103237.52
2019-02-23T22:22:52.292Z,103231.18
2019-02-23T22:25:20.039Z,103228.69
2019-02-23T22:27:48.286Z,103233.79
2019-02-23T22:30:16.383Z,103233.91
2019-02-23T22:32:45.286Z,103237.09
2019-02-23T22:35:12.531Z,103228.50
2019-02-23T22:37:39.917Z,103218.66
2019-02-23T22:40:06.737Z,103218.61
2019-02-23T22:42:34.673Z,103216.70
2019-02-23T22:45:01.577Z,103215.02
2019-02-23T22:47:29.618Z,103206.31
2019-02-23T22:49:56.278Z,103204.77
2019-02-23T22:52:23.932Z,103201.53
2019-02-23T22:54:51.152Z,103202.23
2019-02-23T22:57:19.922Z,103195.77
2019-02-23T22:59:46.587Z,103193.84
2019-02-23T23:02:14.017Z,103198.72
2019-02-23T23:04:42.340Z,103191.72
2019-02-23T23:07:09.026Z,103184.26
2019-02-23T23:09:35.921Z,103191.61
2019-02-23T23:12:03.766Z,103194.31
2019-02-23T23:14:30.459Z,103189.41
2019-02-23T23:16:57.949Z,103196.78
2019-02-23T23:19:25.781Z,103193.11
2019-02-23T23:21:53.078Z,103192.52
2019-02-23T23:24:20.549Z,103192.75
2019-02-23T23:26:48.501Z,103189.20
2019-02-23T23:29:15.745Z,103194.53
2019-02-23T23:31:42.886Z,103195.35
2019-02-23T23:34:09.591Z,103195.73
2019-02-23T23:36:53.168Z,103191.33
2019-02-23T23:39:20.307Z,103184.20
2019-02-23T23:42:04.627Z,103192.02
2019-02-23T23:44:31.974Z,103188.63
2019-02-23T23:46:59.378Z,103192.17
2019-02-23T23:49:26.627Z,103199.45
2019-02-23T23:51:54.082Z,103196.08
2019-02-23T23:54:21.468Z,103200.42
2019-02-23T23:56:48.974Z,103206.45
2019-02-23T23:59:16.986Z,103197.38
